sensor_id;sensor_type;location;lat;lon;timestamp;P1;durP1;ratioP1;P2;durP2;ratioP2
35120;SDS011;21297;52.008;4.576;2023-12-07T00:02:25;24.52;;;10.73;;
35120;SDS011;21297;52.008;4.576;2023-12-07T00:05:11;18.55;;;9.82;;
35120;SDS011;21297;52.008;4.576;2023-12-07T00:07:56;30.45;;;12.68;;
35120;SDS011;21297;52.008;4.576;2023-12-07T00:10:42;22.58;;;11.15;;
35120;SDS011;21297;52.008;4.576;2023-12-07T00:13:28;30.20;;;13.00;;
35120;SDS011;21297;52.008;4.576;2023-12-07T00:16:13;25.55;;;12.50;;
35120;SDS011;21297;52.008;4.576;2023-12-07T00:18:59;23.13;;;10.95;;
35120;SDS011;21297;52.008;4.576;2023-12-07T00:21:45;19.40;;;8.63;;
35120;SDS011;21297;52.008;4.576;2023-12-07T00:24:30;15.05;;;8.05;;
35120;SDS011;21297;52.008;4.576;2023-12-07T00:27:16;15.60;;;8.90;;
35120;SDS011;21297;52.008;4.576;2023-12-07T00:30:02;17.38;;;9.60;;
35120;SDS011;21297;52.008;4.576;2023-12-07T00:32:48;18.38;;;9.73;;
35120;SDS011;21297;52.008;4.576;2023-12-07T00:35:34;14.15;;;8.15;;
35120;SDS011;21297;52.008;4.576;2023-12-07T00:38:21;21.33;;;10.15;;
35120;SDS011;21297;52.008;4.576;2023-12-07T00:41:06;17.27;;;9.70;;
35120;SDS011;21297;52.008;4.576;2023-12-07T00:43:52;20.13;;;10.20;;
35120;SDS011;21297;52.008;4.576;2023-12-07T00:46:38;21.05;;;9.80;;
35120;SDS011;21297;52.008;4.576;2023-12-07T00:49:24;20.20;;;9.60;;
35120;SDS011;21297;52.008;4.576;2023-12-07T00:52:09;20.40;;;10.13;;
35120;SDS011;21297;52.008;4.576;2023-12-07T00:54:55;20.88;;;10.07;;
35120;SDS011;21297;52.008;4.576;2023-12-07T00:57:41;19.50;;;9.32;;
35120;SDS011;21297;52.008;4.576;2023-12-07T01:00:27;20.80;;;11.02;;
35120;SDS011;21297;52.008;4.576;2023-12-07T01:03:13;20.75;;;10.68;;
35120;SDS011;21297;52.008;4.576;2023-12-07T01:05:58;19.65;;;10.00;;
35120;SDS011;21297;52.008;4.576;2023-12-07T01:08:44;20.67;;;10.88;;
35120;SDS011;21297;52.008;4.576;2023-12-07T01:11:30;22.70;;;11.18;;
35120;SDS011;21297;52.008;4.576;2023-12-07T01:14:15;16.83;;;10.25;;
35120;SDS011;21297;52.008;4.576;2023-12-07T01:17:02;18.30;;;10.20;;
35120;SDS011;21297;52.008;4.576;2023-12-07T01:19:47;20.65;;;9.98;;
35120;SDS011;21297;52.008;4.576;2023-12-07T01:22:33;21.52;;;11.10;;
35120;SDS011;21297;52.008;4.576;2023-12-07T01:25:19;18.77;;;10.65;;
35120;SDS011;21297;52.008;4.576;2023-12-07T01:28:06;18.45;;;10.57;;
35120;SDS011;21297;52.008;4.576;2023-12-07T01:30:52;19.30;;;11.13;;
35120;SDS011;21297;52.008;4.576;2023-12-07T01:33:38;17.35;;;9.85;;
35120;SDS011;21297;52.008;4.576;2023-12-07T01:36:23;21.27;;;11.27;;
35120;SDS011;21297;52.008;4.576;2023-12-07T01:39:09;21.67;;;10.15;;
35120;SDS011;21297;52.008;4.576;2023-12-07T01:41:58;22.00;;;11.27;;
35120;SDS011;21297;52.008;4.576;2023-12-07T01:44:43;19.48;;;9.95;;
35120;SDS011;21297;52.008;4.576;2023-12-07T01:47:29;25.63;;;10.93;;
35120;SDS011;21297;52.008;4.576;2023-12-07T01:50:16;20.95;;;11.60;;
35120;SDS011;21297;52.008;4.576;2023-12-07T01:53:02;18.63;;;10.93;;
35120;SDS011;21297;52.008;4.576;2023-12-07T01:55:52;23.42;;;12.52;;
35120;SDS011;21297;52.008;4.576;2023-12-07T01:58:39;21.42;;;11.50;;
35120;SDS011;21297;52.008;4.576;2023-12-07T02:01:25;30.92;;;12.88;;
35120;SDS011;21297;52.008;4.576;2023-12-07T02:04:10;20.33;;;11.30;;
35120;SDS011;21297;52.008;4.576;2023-12-07T02:06:59;26.20;;;12.65;;
35120;SDS011;21297;52.008;4.576;2023-12-07T02:09:46;22.95;;;12.82;;
35120;SDS011;21297;52.008;4.576;2023-12-07T02:12:32;23.52;;;11.55;;
35120;SDS011;21297;52.008;4.576;2023-12-07T02:15:19;26.75;;;13.30;;
35120;SDS011;21297;52.008;4.576;2023-12-07T02:21:08;20.38;;;12.20;;
35120;SDS011;21297;52.008;4.576;2023-12-07T02:24:01;22.95;;;12.57;;
35120;SDS011;21297;52.008;4.576;2023-12-07T02:26:49;19.95;;;12.25;;
35120;SDS011;21297;52.008;4.576;2023-12-07T02:29:35;27.30;;;14.32;;
35120;SDS011;21297;52.008;4.576;2023-12-07T02:32:20;26.17;;;12.48;;
35120;SDS011;21297;52.008;4.576;2023-12-07T02:35:06;22.17;;;12.25;;
35120;SDS011;21297;52.008;4.576;2023-12-07T02:37:53;22.00;;;12.57;;
35120;SDS011;21297;52.008;4.576;2023-12-07T02:40:40;19.95;;;11.93;;
35120;SDS011;21297;52.008;4.576;2023-12-07T02:43:27;22.33;;;12.15;;
35120;SDS011;21297;52.008;4.576;2023-12-07T02:46:13;21.25;;;12.13;;
35120;SDS011;21297;52.008;4.576;2023-12-07T02:48:59;21.77;;;11.63;;
35120;SDS011;21297;52.008;4.576;2023-12-07T02:51:45;22.77;;;11.75;;
35120;SDS011;21297;52.008;4.576;2023-12-07T02:54:30;24.58;;;11.07;;
35120;SDS011;21297;52.008;4.576;2023-12-07T02:57:16;25.33;;;12.82;;
35120;SDS011;21297;52.008;4.576;2023-12-07T03:00:05;18.38;;;11.38;;
35120;SDS011;21297;52.008;4.576;2023-12-07T03:02:54;22.58;;;11.95;;
35120;SDS011;21297;52.008;4.576;2023-12-07T03:05:39;25.80;;;12.82;;
35120;SDS011;21297;52.008;4.576;2023-12-07T03:08:25;19.60;;;12.27;;
35120;SDS011;21297;52.008;4.576;2023-12-07T03:11:10;22.27;;;12.40;;
35120;SDS011;21297;52.008;4.576;2023-12-07T03:13:56;27.80;;;14.65;;
35120;SDS011;21297;52.008;4.576;2023-12-07T03:16:42;19.27;;;11.20;;
35120;SDS011;21297;52.008;4.576;2023-12-07T03:19:27;20.77;;;11.25;;
35120;SDS011;21297;52.008;4.576;2023-12-07T03:22:13;22.45;;;13.07;;
35120;SDS011;21297;52.008;4.576;2023-12-07T03:24:59;25.38;;;13.90;;
35120;SDS011;21297;52.008;4.576;2023-12-07T03:27:44;26.85;;;14.25;;
35120;SDS011;21297;52.008;4.576;2023-12-07T03:30:30;22.90;;;13.13;;
35120;SDS011;21297;52.008;4.576;2023-12-07T03:33:15;23.45;;;12.27;;
35120;SDS011;21297;52.008;4.576;2023-12-07T03:36:01;32.20;;;17.20;;
35120;SDS011;21297;52.008;4.576;2023-12-07T03:38:48;34.58;;;15.60;;
35120;SDS011;21297;52.008;4.576;2023-12-07T03:41:36;25.23;;;13.50;;
35120;SDS011;21297;52.008;4.576;2023-12-07T03:44:22;33.22;;;16.23;;
35120;SDS011;21297;52.008;4.576;2023-12-07T03:47:07;28.55;;;15.60;;
35120;SDS011;21297;52.008;4.576;2023-12-07T03:49:54;29.25;;;16.50;;
35120;SDS011;21297;52.008;4.576;2023-12-07T03:52:39;28.00;;;15.93;;
35120;SDS011;21297;52.008;4.576;2023-12-07T03:55:25;34.47;;;17.05;;
35120;SDS011;21297;52.008;4.576;2023-12-07T03:58:11;29.30;;;16.90;;
35120;SDS011;21297;52.008;4.576;2023-12-07T04:00:58;31.95;;;15.77;;
35120;SDS011;21297;52.008;4.576;2023-12-07T04:03:44;31.85;;;16.23;;
35120;SDS011;21297;52.008;4.576;2023-12-07T04:06:30;36.58;;;19.30;;
35120;SDS011;21297;52.008;4.576;2023-12-07T04:09:15;33.28;;;18.45;;
35120;SDS011;21297;52.008;4.576;2023-12-07T04:12:01;37.03;;;19.75;;
35120;SDS011;21297;52.008;4.576;2023-12-07T04:14:47;32.10;;;18.42;;
35120;SDS011;21297;52.008;4.576;2023-12-07T04:17:32;35.67;;;18.25;;
35120;SDS011;21297;52.008;4.576;2023-12-07T04:20:18;31.77;;;17.35;;
35120;SDS011;21297;52.008;4.576;2023-12-07T04:23:04;37.50;;;19.23;;
35120;SDS011;21297;52.008;4.576;2023-12-07T04:25:49;35.65;;;20.27;;
35120;SDS011;21297;52.008;4.576;2023-12-07T04:28:35;44.22;;;21.60;;
35120;SDS011;21297;52.008;4.576;2023-12-07T04:31:21;36.25;;;20.30;;
35120;SDS011;21297;52.008;4.576;2023-12-07T04:34:06;45.40;;;21.58;;
35120;SDS011;21297;52.008;4.576;2023-12-07T04:36:52;44.63;;;22.77;;
35120;SDS011;21297;52.008;4.576;2023-12-07T04:39:37;42.78;;;23.67;;
35120;SDS011;21297;52.008;4.576;2023-12-07T04:42:23;63.50;;;25.80;;
35120;SDS011;21297;52.008;4.576;2023-12-07T04:45:09;57.60;;;24.95;;
35120;SDS011;21297;52.008;4.576;2023-12-07T04:47:55;59.42;;;26.58;;
35120;SDS011;21297;52.008;4.576;2023-12-07T04:50:42;61.10;;;27.48;;
35120;SDS011;21297;52.008;4.576;2023-12-07T04:53:28;62.60;;;29.05;;
35120;SDS011;21297;52.008;4.576;2023-12-07T04:56:13;58.80;;;29.33;;
35120;SDS011;21297;52.008;4.576;2023-12-07T04:58:59;53.97;;;26.42;;
35120;SDS011;21297;52.008;4.576;2023-12-07T05:01:45;62.35;;;27.70;;
35120;SDS011;21297;52.008;4.576;2023-12-07T05:04:32;55.33;;;26.85;;
35120;SDS011;21297;52.008;4.576;2023-12-07T05:07:19;58.75;;;27.70;;
35120;SDS011;21297;52.008;4.576;2023-12-07T05:10:05;81.90;;;27.85;;
35120;SDS011;21297;52.008;4.576;2023-12-07T05:12:51;47.97;;;25.38;;
35120;SDS011;21297;52.008;4.576;2023-12-07T05:15:37;48.55;;;25.65;;
35120;SDS011;21297;52.008;4.576;2023-12-07T05:18:23;54.22;;;26.52;;
35120;SDS011;21297;52.008;4.576;2023-12-07T05:21:08;56.08;;;25.58;;
35120;SDS011;21297;52.008;4.576;2023-12-07T05:23:54;57.08;;;26.95;;
35120;SDS011;21297;52.008;4.576;2023-12-07T05:26:43;61.67;;;27.23;;
35120;SDS011;21297;52.008;4.576;2023-12-07T05:29:31;71.43;;;28.35;;
35120;SDS011;21297;52.008;4.576;2023-12-07T05:32:17;79.93;;;28.95;;
35120;SDS011;21297;52.008;4.576;2023-12-07T05:35:03;89.07;;;30.00;;
35120;SDS011;21297;52.008;4.576;2023-12-07T05:37:49;122.97;;;31.10;;
35120;SDS011;21297;52.008;4.576;2023-12-07T05:40:35;81.10;;;30.33;;
35120;SDS011;21297;52.008;4.576;2023-12-07T05:43:21;86.95;;;27.48;;
35120;SDS011;21297;52.008;4.576;2023-12-07T05:46:07;63.85;;;25.50;;
35120;SDS011;21297;52.008;4.576;2023-12-07T05:48:53;73.57;;;24.73;;
35120;SDS011;21297;52.008;4.576;2023-12-07T05:51:38;77.43;;;22.15;;
35120;SDS011;21297;52.008;4.576;2023-12-07T05:54:24;40.28;;;20.45;;
35120;SDS011;21297;52.008;4.576;2023-12-07T05:57:10;62.35;;;23.90;;
35120;SDS011;21297;52.008;4.576;2023-12-07T05:59:56;51.42;;;21.05;;
35120;SDS011;21297;52.008;4.576;2023-12-07T06:02:41;78.43;;;23.08;;
35120;SDS011;21297;52.008;4.576;2023-12-07T06:05:27;57.25;;;23.30;;
35120;SDS011;21297;52.008;4.576;2023-12-07T06:08:13;60.38;;;22.52;;
35120;SDS011;21297;52.008;4.576;2023-12-07T06:10:59;40.00;;;19.73;;
35120;SDS011;21297;52.008;4.576;2023-12-07T06:13:44;66.80;;;20.40;;
35120;SDS011;21297;52.008;4.576;2023-12-07T06:16:30;75.30;;;23.38;;
35120;SDS011;21297;52.008;4.576;2023-12-07T06:19:16;46.83;;;20.63;;
35120;SDS011;21297;52.008;4.576;2023-12-07T06:22:01;41.35;;;21.45;;
35120;SDS011;21297;52.008;4.576;2023-12-07T06:24:47;94.18;;;25.02;;
35120;SDS011;21297;52.008;4.576;2023-12-07T06:27:33;51.70;;;21.45;;
35120;SDS011;21297;52.008;4.576;2023-12-07T06:30:19;81.03;;;27.52;;
35120;SDS011;21297;52.008;4.576;2023-12-07T06:33:04;68.50;;;21.60;;
35120;SDS011;21297;52.008;4.576;2023-12-07T06:35:50;102.65;;;24.50;;
35120;SDS011;21297;52.008;4.576;2023-12-07T06:38:36;54.72;;;23.70;;
35120;SDS011;21297;52.008;4.576;2023-12-07T06:41:21;59.25;;;22.67;;
35120;SDS011;21297;52.008;4.576;2023-12-07T06:44:07;119.75;;;25.73;;
35120;SDS011;21297;52.008;4.576;2023-12-07T06:46:53;62.83;;;21.15;;
35120;SDS011;21297;52.008;4.576;2023-12-07T06:49:39;110.95;;;25.60;;
35120;SDS011;21297;52.008;4.576;2023-12-07T06:52:25;135.88;;;24.83;;
35120;SDS011;21297;52.008;4.576;2023-12-07T06:55:10;124.65;;;23.30;;
35120;SDS011;21297;52.008;4.576;2023-12-07T06:57:56;78.05;;;22.63;;
35120;SDS011;21297;52.008;4.576;2023-12-07T07:00:42;52.13;;;20.15;;
35120;SDS011;21297;52.008;4.576;2023-12-07T07:03:27;50.33;;;20.02;;
35120;SDS011;21297;52.008;4.576;2023-12-07T07:06:13;48.00;;;17.83;;
35120;SDS011;21297;52.008;4.576;2023-12-07T07:08:59;44.53;;;16.73;;
35120;SDS011;21297;52.008;4.576;2023-12-07T07:11:47;56.35;;;18.45;;
35120;SDS011;21297;52.008;4.576;2023-12-07T07:14:34;67.85;;;17.77;;
35120;SDS011;21297;52.008;4.576;2023-12-07T07:17:19;40.05;;;16.90;;
35120;SDS011;21297;52.008;4.576;2023-12-07T07:20:05;36.88;;;16.65;;
35120;SDS011;21297;52.008;4.576;2023-12-07T07:22:51;117.07;;;19.15;;
35120;SDS011;21297;52.008;4.576;2023-12-07T07:25:37;129.90;;;21.02;;
35120;SDS011;21297;52.008;4.576;2023-12-07T07:28:24;138.57;;;25.13;;
35120;SDS011;21297;52.008;4.576;2023-12-07T07:31:09;118.78;;;20.20;;
35120;SDS011;21297;52.008;4.576;2023-12-07T07:33:55;73.63;;;20.02;;
35120;SDS011;21297;52.008;4.576;2023-12-07T07:36:41;57.78;;;17.80;;
35120;SDS011;21297;52.008;4.576;2023-12-07T07:39:27;61.60;;;18.38;;
35120;SDS011;21297;52.008;4.576;2023-12-07T07:42:12;146.80;;;23.30;;
35120;SDS011;21297;52.008;4.576;2023-12-07T07:44:58;97.47;;;21.23;;
35120;SDS011;21297;52.008;4.576;2023-12-07T07:47:44;63.90;;;17.98;;
35120;SDS011;21297;52.008;4.576;2023-12-07T07:50:29;99.70;;;24.65;;
35120;SDS011;21297;52.008;4.576;2023-12-07T07:53:15;55.97;;;19.67;;
35120;SDS011;21297;52.008;4.576;2023-12-07T07:56:01;147.88;;;23.83;;
35120;SDS011;21297;52.008;4.576;2023-12-07T07:58:47;126.25;;;24.40;;
35120;SDS011;21297;52.008;4.576;2023-12-07T08:01:34;71.97;;;18.95;;
35120;SDS011;21297;52.008;4.576;2023-12-07T08:04:20;111.43;;;19.90;;
35120;SDS011;21297;52.008;4.576;2023-12-07T08:07:06;112.30;;;20.15;;
35120;SDS011;21297;52.008;4.576;2023-12-07T08:09:53;82.18;;;18.88;;
35120;SDS011;21297;52.008;4.576;2023-12-07T08:12:41;136.63;;;20.88;;
35120;SDS011;21297;52.008;4.576;2023-12-07T08:15:27;120.10;;;20.42;;
35120;SDS011;21297;52.008;4.576;2023-12-07T08:18:12;135.80;;;21.65;;
35120;SDS011;21297;52.008;4.576;2023-12-07T08:20:59;109.47;;;21.08;;
35120;SDS011;21297;52.008;4.576;2023-12-07T08:23:45;128.48;;;20.55;;
35120;SDS011;21297;52.008;4.576;2023-12-07T08:26:31;86.57;;;20.35;;
35120;SDS011;21297;52.008;4.576;2023-12-07T08:29:17;131.70;;;21.73;;
35120;SDS011;21297;52.008;4.576;2023-12-07T08:32:02;105.32;;;21.58;;
35120;SDS011;21297;52.008;4.576;2023-12-07T08:34:48;78.43;;;19.60;;
35120;SDS011;21297;52.008;4.576;2023-12-07T08:37:36;91.40;;;20.30;;
35120;SDS011;21297;52.008;4.576;2023-12-07T08:40:22;72.68;;;20.35;;
35120;SDS011;21297;52.008;4.576;2023-12-07T08:43:08;119.40;;;22.45;;
35120;SDS011;21297;52.008;4.576;2023-12-07T08:45:54;174.00;;;27.10;;
35120;SDS011;21297;52.008;4.576;2023-12-07T08:48:39;111.70;;;23.13;;
35120;SDS011;21297;52.008;4.576;2023-12-07T08:51:25;149.80;;;26.77;;
35120;SDS011;21297;52.008;4.576;2023-12-07T08:54:11;106.45;;;22.75;;
35120;SDS011;21297;52.008;4.576;2023-12-07T08:56:57;192.88;;;24.63;;
35120;SDS011;21297;52.008;4.576;2023-12-07T08:59:42;143.80;;;23.45;;
35120;SDS011;21297;52.008;4.576;2023-12-07T09:02:28;133.45;;;23.70;;
35120;SDS011;21297;52.008;4.576;2023-12-07T09:05:14;117.18;;;22.70;;
35120;SDS011;21297;52.008;4.576;2023-12-07T09:08:00;193.15;;;26.27;;
35120;SDS011;21297;52.008;4.576;2023-12-07T09:10:46;137.95;;;25.48;;
35120;SDS011;21297;52.008;4.576;2023-12-07T09:13:35;196.02;;;26.35;;
35120;SDS011;21297;52.008;4.576;2023-12-07T09:16:21;205.10;;;28.02;;
35120;SDS011;21297;52.008;4.576;2023-12-07T09:19:06;111.72;;;24.92;;
35120;SDS011;21297;52.008;4.576;2023-12-07T09:21:52;118.88;;;25.45;;
35120;SDS011;21297;52.008;4.576;2023-12-07T09:24:38;219.25;;;30.75;;
35120;SDS011;21297;52.008;4.576;2023-12-07T09:27:25;127.60;;;28.95;;
35120;SDS011;21297;52.008;4.576;2023-12-07T09:30:11;114.93;;;26.98;;
35120;SDS011;21297;52.008;4.576;2023-12-07T09:32:57;126.15;;;28.67;;
35120;SDS011;21297;52.008;4.576;2023-12-07T09:35:42;118.30;;;27.15;;
35120;SDS011;21297;52.008;4.576;2023-12-07T09:38:28;170.30;;;28.67;;
35120;SDS011;21297;52.008;4.576;2023-12-07T09:41:14;130.27;;;32.72;;
35120;SDS011;21297;52.008;4.576;2023-12-07T09:44:00;148.52;;;32.55;;
35120;SDS011;21297;52.008;4.576;2023-12-07T09:46:46;173.13;;;37.40;;
35120;SDS011;21297;52.008;4.576;2023-12-07T09:49:31;149.00;;;32.20;;
35120;SDS011;21297;52.008;4.576;2023-12-07T09:52:17;124.28;;;32.67;;
35120;SDS011;21297;52.008;4.576;2023-12-07T09:55:06;139.35;;;34.30;;
35120;SDS011;21297;52.008;4.576;2023-12-07T09:57:52;140.48;;;34.05;;
35120;SDS011;21297;52.008;4.576;2023-12-07T10:00:42;132.67;;;33.60;;
35120;SDS011;21297;52.008;4.576;2023-12-07T10:03:27;136.48;;;34.15;;
35120;SDS011;21297;52.008;4.576;2023-12-07T10:06:13;138.50;;;35.67;;
35120;SDS011;21297;52.008;4.576;2023-12-07T10:09:02;90.60;;;30.48;;
35120;SDS011;21297;52.008;4.576;2023-12-07T10:11:49;110.07;;;30.75;;
35120;SDS011;21297;52.008;4.576;2023-12-07T10:14:35;106.72;;;31.63;;
35120;SDS011;21297;52.008;4.576;2023-12-07T10:17:21;104.63;;;31.23;;
35120;SDS011;21297;52.008;4.576;2023-12-07T10:20:07;102.20;;;29.52;;
35120;SDS011;21297;52.008;4.576;2023-12-07T10:23:03;98.22;;;30.13;;
35120;SDS011;21297;52.008;4.576;2023-12-07T10:25:49;93.10;;;30.85;;
35120;SDS011;21297;52.008;4.576;2023-12-07T10:28:35;87.40;;;29.27;;
35120;SDS011;21297;52.008;4.576;2023-12-07T10:31:23;89.32;;;29.08;;
35120;SDS011;21297;52.008;4.576;2023-12-07T10:34:09;102.10;;;31.35;;
35120;SDS011;21297;52.008;4.576;2023-12-07T10:36:55;91.03;;;29.90;;
35120;SDS011;21297;52.008;4.576;2023-12-07T10:39:43;98.95;;;31.58;;
35120;SDS011;21297;52.008;4.576;2023-12-07T10:42:30;98.72;;;32.15;;
35120;SDS011;21297;52.008;4.576;2023-12-07T10:45:18;83.65;;;31.25;;
35120;SDS011;21297;52.008;4.576;2023-12-07T10:48:07;81.40;;;28.20;;
35120;SDS011;21297;52.008;4.576;2023-12-07T10:50:55;76.47;;;28.05;;
35120;SDS011;21297;52.008;4.576;2023-12-07T10:53:45;80.32;;;29.33;;
35120;SDS011;21297;52.008;4.576;2023-12-07T10:56:38;74.60;;;28.08;;
35120;SDS011;21297;52.008;4.576;2023-12-07T10:59:28;78.97;;;29.52;;
35120;SDS011;21297;52.008;4.576;2023-12-07T11:02:15;62.92;;;27.17;;
35120;SDS011;21297;52.008;4.576;2023-12-07T11:05:01;71.28;;;28.00;;
35120;SDS011;21297;52.008;4.576;2023-12-07T11:13:59;74.43;;;28.98;;
35120;SDS011;21297;52.008;4.576;2023-12-07T11:16:48;67.38;;;27.52;;
35120;SDS011;21297;52.008;4.576;2023-12-07T11:22:22;59.22;;;25.90;;
35120;SDS011;21297;52.008;4.576;2023-12-07T11:25:08;52.78;;;25.83;;
35120;SDS011;21297;52.008;4.576;2023-12-07T11:28:02;57.85;;;25.75;;
35120;SDS011;21297;52.008;4.576;2023-12-07T11:30:49;56.40;;;25.30;;
35120;SDS011;21297;52.008;4.576;2023-12-07T11:33:38;53.25;;;26.42;;
35120;SDS011;21297;52.008;4.576;2023-12-07T11:36:27;54.00;;;26.35;;
35120;SDS011;21297;52.008;4.576;2023-12-07T11:42:05;58.17;;;28.30;;
35120;SDS011;21297;52.008;4.576;2023-12-07T11:44:53;62.80;;;28.75;;
35120;SDS011;21297;52.008;4.576;2023-12-07T11:47:39;64.32;;;26.02;;
35120;SDS011;21297;52.008;4.576;2023-12-07T11:50:24;57.95;;;27.52;;
35120;SDS011;21297;52.008;4.576;2023-12-07T11:53:10;53.90;;;25.55;;
35120;SDS011;21297;52.008;4.576;2023-12-07T11:55:56;56.28;;;25.45;;
35120;SDS011;21297;52.008;4.576;2023-12-07T11:58:43;64.75;;;28.30;;
35120;SDS011;21297;52.008;4.576;2023-12-07T12:01:29;61.63;;;27.35;;
35120;SDS011;21297;52.008;4.576;2023-12-07T12:04:15;58.10;;;27.60;;
35120;SDS011;21297;52.008;4.576;2023-12-07T12:07:02;63.92;;;29.20;;
35120;SDS011;21297;52.008;4.576;2023-12-07T12:09:48;60.50;;;27.63;;
35120;SDS011;21297;52.008;4.576;2023-12-07T12:12:33;55.15;;;27.85;;
35120;SDS011;21297;52.008;4.576;2023-12-07T12:15:19;57.80;;;28.13;;
35120;SDS011;21297;52.008;4.576;2023-12-07T12:18:05;57.70;;;28.95;;
35120;SDS011;21297;52.008;4.576;2023-12-07T12:20:52;61.35;;;29.05;;
35120;SDS011;21297;52.008;4.576;2023-12-07T12:23:39;58.20;;;29.98;;
35120;SDS011;21297;52.008;4.576;2023-12-07T12:26:25;56.88;;;28.75;;
35120;SDS011;21297;52.008;4.576;2023-12-07T12:29:11;53.35;;;27.08;;
35120;SDS011;21297;52.008;4.576;2023-12-07T12:31:57;57.60;;;27.38;;
35120;SDS011;21297;52.008;4.576;2023-12-07T12:34:43;57.25;;;26.10;;
35120;SDS011;21297;52.008;4.576;2023-12-07T12:37:30;53.38;;;28.33;;
35120;SDS011;21297;52.008;4.576;2023-12-07T12:40:19;56.88;;;27.35;;
35120;SDS011;21297;52.008;4.576;2023-12-07T12:43:06;55.70;;;27.15;;
35120;SDS011;21297;52.008;4.576;2023-12-07T12:45:53;53.58;;;26.38;;
35120;SDS011;21297;52.008;4.576;2023-12-07T12:48:51;48.17;;;26.02;;
35120;SDS011;21297;52.008;4.576;2023-12-07T12:51:41;51.25;;;27.00;;
35120;SDS011;21297;52.008;4.576;2023-12-07T12:54:31;51.00;;;25.17;;
35120;SDS011;21297;52.008;4.576;2023-12-07T12:57:19;51.55;;;25.90;;
35120;SDS011;21297;52.008;4.576;2023-12-07T13:00:05;54.13;;;26.83;;
35120;SDS011;21297;52.008;4.576;2023-12-07T13:02:53;56.42;;;27.02;;
35120;SDS011;21297;52.008;4.576;2023-12-07T13:05:38;46.25;;;25.00;;
35120;SDS011;21297;52.008;4.576;2023-12-07T13:08:24;43.38;;;22.83;;
35120;SDS011;21297;52.008;4.576;2023-12-07T13:11:14;49.28;;;25.58;;
35120;SDS011;21297;52.008;4.576;2023-12-07T13:14:03;43.55;;;23.02;;
35120;SDS011;21297;52.008;4.576;2023-12-07T13:16:52;42.15;;;23.33;;
35120;SDS011;21297;52.008;4.576;2023-12-07T13:19:38;41.78;;;22.55;;
35120;SDS011;21297;52.008;4.576;2023-12-07T13:22:24;45.97;;;23.33;;
35120;SDS011;21297;52.008;4.576;2023-12-07T13:25:09;42.22;;;22.35;;
35120;SDS011;21297;52.008;4.576;2023-12-07T13:27:56;49.50;;;23.83;;
35120;SDS011;21297;52.008;4.576;2023-12-07T13:30:41;41.92;;;22.33;;
35120;SDS011;21297;52.008;4.576;2023-12-07T13:33:27;47.80;;;23.92;;
35120;SDS011;21297;52.008;4.576;2023-12-07T13:36:13;39.35;;;20.25;;
35120;SDS011;21297;52.008;4.576;2023-12-07T13:38:58;35.55;;;19.98;;
35120;SDS011;21297;52.008;4.576;2023-12-07T13:41:47;45.42;;;21.67;;
35120;SDS011;21297;52.008;4.576;2023-12-07T13:44:34;48.30;;;22.02;;
35120;SDS011;21297;52.008;4.576;2023-12-07T13:47:20;43.55;;;22.15;;
35120;SDS011;21297;52.008;4.576;2023-12-07T13:50:08;41.42;;;20.92;;
35120;SDS011;21297;52.008;4.576;2023-12-07T13:52:54;50.03;;;23.45;;
35120;SDS011;21297;52.008;4.576;2023-12-07T13:55:47;41.92;;;22.50;;
35120;SDS011;21297;52.008;4.576;2023-12-07T13:58:33;51.38;;;23.77;;
35120;SDS011;21297;52.008;4.576;2023-12-07T14:01:20;41.33;;;22.00;;
35120;SDS011;21297;52.008;4.576;2023-12-07T14:04:07;42.38;;;22.00;;
35120;SDS011;21297;52.008;4.576;2023-12-07T14:06:53;47.05;;;22.92;;
35120;SDS011;21297;52.008;4.576;2023-12-07T14:09:40;46.28;;;21.73;;
35120;SDS011;21297;52.008;4.576;2023-12-07T14:12:26;41.42;;;21.90;;
35120;SDS011;21297;52.008;4.576;2023-12-07T14:15:12;46.55;;;24.05;;
35120;SDS011;21297;52.008;4.576;2023-12-07T14:17:59;42.92;;;23.65;;
35120;SDS011;21297;52.008;4.576;2023-12-07T14:20:45;42.55;;;23.17;;
35120;SDS011;21297;52.008;4.576;2023-12-07T14:23:31;42.60;;;22.85;;
35120;SDS011;21297;52.008;4.576;2023-12-07T14:26:17;46.92;;;24.23;;
35120;SDS011;21297;52.008;4.576;2023-12-07T14:29:02;43.05;;;22.17;;
35120;SDS011;21297;52.008;4.576;2023-12-07T14:31:48;44.75;;;22.17;;
35120;SDS011;21297;52.008;4.576;2023-12-07T14:34:34;46.10;;;22.48;;
35120;SDS011;21297;52.008;4.576;2023-12-07T14:37:20;45.03;;;21.95;;
35120;SDS011;21297;52.008;4.576;2023-12-07T14:40:06;41.67;;;21.95;;
35120;SDS011;21297;52.008;4.576;2023-12-07T14:42:54;43.75;;;22.65;;
35120;SDS011;21297;52.008;4.576;2023-12-07T14:45:39;40.85;;;22.33;;
35120;SDS011;21297;52.008;4.576;2023-12-07T14:48:25;47.22;;;23.48;;
35120;SDS011;21297;52.008;4.576;2023-12-07T14:51:11;44.38;;;22.83;;
35120;SDS011;21297;52.008;4.576;2023-12-07T14:53:56;41.60;;;23.33;;
35120;SDS011;21297;52.008;4.576;2023-12-07T14:56:43;43.72;;;23.27;;
35120;SDS011;21297;52.008;4.576;2023-12-07T14:59:32;44.88;;;24.05;;
35120;SDS011;21297;52.008;4.576;2023-12-07T15:02:17;44.83;;;24.15;;
35120;SDS011;21297;52.008;4.576;2023-12-07T15:05:03;46.25;;;24.58;;
35120;SDS011;21297;52.008;4.576;2023-12-07T15:07:49;46.08;;;24.38;;
35120;SDS011;21297;52.008;4.576;2023-12-07T15:10:36;46.15;;;23.52;;
35120;SDS011;21297;52.008;4.576;2023-12-07T15:13:22;44.80;;;24.42;;
35120;SDS011;21297;52.008;4.576;2023-12-07T15:16:08;46.33;;;25.50;;
35120;SDS011;21297;52.008;4.576;2023-12-07T15:18:54;47.40;;;24.10;;
35120;SDS011;21297;52.008;4.576;2023-12-07T15:21:40;44.90;;;23.77;;
35120;SDS011;21297;52.008;4.576;2023-12-07T15:24:25;48.47;;;25.05;;
35120;SDS011;21297;52.008;4.576;2023-12-07T15:27:11;46.15;;;23.90;;
35120;SDS011;21297;52.008;4.576;2023-12-07T15:29:57;45.17;;;23.83;;
35120;SDS011;21297;52.008;4.576;2023-12-07T15:32:42;44.70;;;24.05;;
35120;SDS011;21297;52.008;4.576;2023-12-07T15:35:28;56.35;;;24.60;;
35120;SDS011;21297;52.008;4.576;2023-12-07T15:38:14;49.33;;;25.08;;
35120;SDS011;21297;52.008;4.576;2023-12-07T15:41:00;50.67;;;26.27;;
35120;SDS011;21297;52.008;4.576;2023-12-07T15:43:48;56.28;;;28.90;;
35120;SDS011;21297;52.008;4.576;2023-12-07T15:46:33;53.25;;;26.92;;
35120;SDS011;21297;52.008;4.576;2023-12-07T15:49:19;59.05;;;29.00;;
35120;SDS011;21297;52.008;4.576;2023-12-07T15:52:04;61.13;;;29.42;;
35120;SDS011;21297;52.008;4.576;2023-12-07T15:54:50;58.33;;;29.58;;
35120;SDS011;21297;52.008;4.576;2023-12-07T15:57:36;61.20;;;30.45;;
35120;SDS011;21297;52.008;4.576;2023-12-07T16:00:22;60.90;;;31.05;;
35120;SDS011;21297;52.008;4.576;2023-12-07T16:03:08;67.35;;;31.60;;
35120;SDS011;21297;52.008;4.576;2023-12-07T16:05:53;63.60;;;32.95;;
35120;SDS011;21297;52.008;4.576;2023-12-07T16:08:39;67.25;;;31.50;;
35120;SDS011;21297;52.008;4.576;2023-12-07T16:11:25;69.90;;;32.30;;
35120;SDS011;21297;52.008;4.576;2023-12-07T16:14:11;65.35;;;32.53;;
35120;SDS011;21297;52.008;4.576;2023-12-07T16:16:57;61.42;;;31.30;;
35120;SDS011;21297;52.008;4.576;2023-12-07T16:19:43;63.67;;;31.15;;
35120;SDS011;21297;52.008;4.576;2023-12-07T16:22:29;66.95;;;30.75;;
35120;SDS011;21297;52.008;4.576;2023-12-07T16:25:14;69.47;;;31.42;;
35120;SDS011;21297;52.008;4.576;2023-12-07T16:28:00;67.47;;;30.45;;